Time;durP1;ratioP1;P1;durP2;ratioP2;P2;SDS_P1;SDS_P2;PMS_P1;PMS_P2;Temp;Humidity;BMP_temperature;BMP_pressure;BME280_temperature;BME280_humidity;BME280_pressure;Samples;Min_cycle;Max_cycle;Signal;HPM_P1;HPM_P2
2021/01/06 00:00:39;;;;;;;14.20;8.50;;;;;;;;;;5077871;28;20192;-72
2021/01/06 00:03:05;;;;;;;18.90;8.87;;;;;;;;;;5068481;28;20180;-72
2021/01/06 00:05:32;;;;;;;12.47;8.37;;;;;;;;;;5080555;28;20184;-72
2021/01/06 00:07:57;;;;;;;14.07;8.63;;;;;;;;;;5086969;28;20650;-72
2021/01/06 00:10:25;;;;;;;11.53;8.40;;;;;;;;;;5086500;28;20184;-72
2021/01/06 00:12:51;;;;;;;12.63;8.53;;;;;;;;;;5078336;28;20191;-72
2021/01/06 00:15:29;;;;;;;14.00;8.67;;;;;;;;;;5068688;28;20560;-72
2021/01/06 00:17:55;;;;;;;12.60;7.83;;;;;;;;;;5070095;28;20191;-72
2021/01/06 00:20:22;;;;;;;11.53;7.60;;;;;;;;;;5071208;28;20188;-72
2021/01/06 00:22:48;;;;;;;13.10;8.10;;;;;;;;;;5078477;28;20298;-72
2021/01/06 00:25:27;;;;;;;12.00;8.00;;;;;;;;;;5065443;28;20605;-72
2021/01/06 00:27:53;;;;;;;11.50;7.57;;;;;;;;;;5075563;28;20184;-72
2021/01/06 00:30:33;;;;;;;12.17;8.27;;;;;;;;;;5088047;28;20194;-72
2021/01/06 00:32:59;;;;;;;15.10;8.13;;;;;;;;;;5072469;28;20184;-72
2021/01/06 00:35:26;;;;;;;12.53;8.43;;;;;;;;;;5084107;28;20211;-72
2021/01/06 00:37:57;;;;;;;12.20;8.43;;;;;;;;;;5076372;28;20297;-72
2021/01/06 00:40:28;;;;;;;11.93;7.63;;;;;;;;;;5086632;28;20229;-72
2021/01/06 00:42:54;;;;;;;12.77;8.20;;;;;;;;;;5076764;28;20513;-72
2021/01/06 00:45:19;;;;;;;11.27;7.83;;;;;;;;;;5085801;28;20195;-72
2021/01/06 00:47:44;;;;;;;11.43;7.77;;;;;;;;;;5075204;28;20192;-72
2021/01/06 00:50:10;;;;;;;14.13;7.90;;;;;;;;;;5069641;28;20487;-72
2021/01/06 00:52:36;;;;;;;14.00;8.40;;;;;;;;;;5067352;28;20180;-72
2021/01/06 00:55:01;;;;;;;12.90;8.70;;;;;;;;;;5077607;28;20276;-73
2021/01/06 00:57:27;;;;;;;12.03;8.10;;;;;;;;;;5086471;28;20608;-72
2021/01/06 00:59:52;;;;;;;14.13;8.67;;;;;;;;;;5076268;28;20497;-72
2021/01/06 01:02:18;;;;;;;12.17;8.00;;;;;;;;;;5086159;28;20179;-72
2021/01/06 01:04:45;;;;;;;13.30;7.87;;;;;;;;;;5078110;28;20559;-72
2021/01/06 01:07:10;;;;;;;12.53;8.37;;;;;;;;;;5067821;28;20220;-72
2021/01/06 01:09:36;;;;;;;15.03;9.00;;;;;;;;;;5064864;28;20195;-72
2021/01/06 01:12:04;;;;;;;14.73;9.10;;;;;;;;;;5085506;28;20287;-72
2021/01/06 01:14:30;;;;;;;15.43;8.67;;;;;;;;;;5075480;28;20223;-72
2021/01/06 01:16:55;;;;;;;13.57;8.63;;;;;;;;;;5085160;28;20188;-71
2021/01/06 01:19:20;;;;;;;13.57;9.17;;;;;;;;;;5077088;28;20273;-72
2021/01/06 01:21:46;;;;;;;12.73;8.63;;;;;;;;;;5082704;28;20187;-72
2021/01/06 01:24:11;;;;;;;14.27;8.63;;;;;;;;;;5083868;28;20184;-72
2021/01/06 01:26:39;;;;;;;15.80;9.13;;;;;;;;;;5077760;28;20212;-72
2021/01/06 01:29:04;;;;;;;17.77;8.83;;;;;;;;;;5084783;28;20219;-72
2021/01/06 01:31:34;;;;;;;12.90;8.30;;;;;;;;;;5077015;28;20216;-72
2021/01/06 01:34:00;;;;;;;17.73;9.30;;;;;;;;;;5083068;28;20199;-72
2021/01/06 01:36:27;;;;;;;13.47;9.07;;;;;;;;;;5078172;28;20580;-72
2021/01/06 01:38:52;;;;;;;14.57;8.70;;;;;;;;;;5087623;28;20188;-72
2021/01/06 01:41:26;;;;;;;15.60;9.07;;;;;;;;;;5076605;28;20238;-72
2021/01/06 01:43:52;;;;;;;14.20;9.50;;;;;;;;;;5087811;28;20200;-72
2021/01/06 01:46:20;;;;;;;16.17;9.83;;;;;;;;;;5076016;28;20192;-72
2021/01/06 01:48:49;;;;;;;16.80;9.83;;;;;;;;;;5085059;28;20234;-72
2021/01/06 01:51:29;;;;;;;15.53;8.90;;;;;;;;;;5077728;28;20266;-72
2021/01/06 01:54:09;;;;;;;16.33;9.73;;;;;;;;;;5066458;28;20200;-72
2021/01/06 01:56:52;;;;;;;16.17;9.30;;;;;;;;;;5077849;28;20188;-71
2021/01/06 01:59:39;;;;;;;15.73;9.77;;;;;;;;;;5088831;28;20245;-72
2021/01/06 02:02:26;;;;;;;17.63;9.63;;;;;;;;;;5078687;28;20183;-72
2021/01/06 02:04:56;;;;;;;13.80;9.43;;;;;;;;;;5087434;28;20232;-72
2021/01/06 02:07:25;;;;;;;14.67;9.07;;;;;;;;;;5081739;28;20617;-72
2021/01/06 02:10:04;;;;;;;19.30;9.97;;;;;;;;;;5088965;28;20191;-72
2021/01/06 02:12:40;;;;;;;14.97;9.63;;;;;;;;;;5079671;28;20291;-72
2021/01/06 02:15:10;;;;;;;17.93;10.20;;;;;;;;;;5089867;28;20217;-72
2021/01/06 02:17:36;;;;;;;16.10;10.37;;;;;;;;;;5079372;28;20843;-72
2021/01/06 02:20:09;;;;;;;15.20;9.97;;;;;;;;;;5089670;28;20256;-72
2021/01/06 02:22:35;;;;;;;17.53;10.97;;;;;;;;;;5081909;28;20216;-72
2021/01/06 02:25:00;;;;;;;15.20;9.87;;;;;;;;;;5089236;28;20180;-72
2021/01/06 02:27:26;;;;;;;14.80;10.57;;;;;;;;;;5083214;28;20214;-72
2021/01/06 02:29:51;;;;;;;19.40;10.03;;;;;;;;;;5087627;28;20600;-72
2021/01/06 02:32:17;;;;;;;17.30;10.53;;;;;;;;;;5088751;28;20614;-72
2021/01/06 02:34:42;;;;;;;17.07;10.87;;;;;;;;;;5063518;28;20743;-72
2021/01/06 02:37:08;;;;;;;19.10;10.13;;;;;;;;;;5091138;28;20277;-72
2021/01/06 02:39:35;;;;;;;16.70;9.67;;;;;;;;;;5079275;28;20193;-72
2021/01/06 02:42:01;;;;;;;22.43;10.33;;;;;;;;;;5090551;28;20295;-72
2021/01/06 02:44:27;;;;;;;19.47;10.60;;;;;;;;;;5080080;28;20187;-72
2021/01/06 02:46:55;;;;;;;17.33;9.93;;;;;;;;;;5087767;28;20651;-72
2021/01/06 02:49:21;;;;;;;15.00;9.57;;;;;;;;;;5078332;28;20698;-72
2021/01/06 02:52:09;;;;;;;17.83;9.83;;;;;;;;;;5071802;28;20279;-72
2021/01/06 02:54:38;;;;;;;15.30;10.03;;;;;;;;;;5080879;28;20202;-72
2021/01/06 02:57:05;;;;;;;18.37;9.70;;;;;;;;;;5072193;28;20293;-72
2021/01/06 02:59:44;;;;;;;16.27;9.70;;;;;;;;;;5075907;28;20180;-72
2021/01/06 03:02:16;;;;;;;15.47;10.13;;;;;;;;;;5087861;28;20187;-72
2021/01/06 03:04:47;;;;;;;18.27;11.00;;;;;;;;;;5080002;28;20682;-72
2021/01/06 03:07:13;;;;;;;16.80;10.30;;;;;;;;;;5067536;28;20215;-72
2021/01/06 03:09:42;;;;;;;17.07;10.67;;;;;;;;;;5079407;28;20203;-72
2021/01/06 03:12:18;;;;;;;17.50;10.27;;;;;;;;;;5086471;28;20187;-72
2021/01/06 03:14:44;;;;;;;15.13;9.50;;;;;;;;;;5077562;28;20619;-72
2021/01/06 03:17:13;;;;;;;17.53;10.67;;;;;;;;;;5079344;28;20290;-71
2021/01/06 03:19:43;;;;;;;19.00;10.73;;;;;;;;;;5087810;28;20684;-72
2021/01/06 03:22:11;;;;;;;19.63;11.00;;;;;;;;;;5078919;28;20520;-72
2021/01/06 03:24:43;;;;;;;16.20;9.47;;;;;;;;;;5089008;28;20722;-72
2021/01/06 03:27:10;;;;;;;17.40;10.27;;;;;;;;;;5078254;28;20665;-72
2021/01/06 03:29:37;;;;;;;14.50;9.57;;;;;;;;;;5068141;28;20183;-72
2021/01/06 03:32:08;;;;;;;18.57;10.07;;;;;;;;;;5078414;28;20202;-72
2021/01/06 03:34:41;;;;;;;17.30;9.93;;;;;;;;;;5087335;28;20529;-72
2021/01/06 03:37:12;;;;;;;14.97;9.50;;;;;;;;;;5076967;28;20220;-72
2021/01/06 03:39:51;;;;;;;15.23;9.67;;;;;;;;;;5087110;28;20283;-72
2021/01/06 03:42:17;;;;;;;17.77;9.57;;;;;;;;;;5079647;28;20708;-72
2021/01/06 03:44:45;;;;;;;14.27;9.07;;;;;;;;;;5081318;28;20188;-72
2021/01/06 03:47:20;;;;;;;15.87;9.80;;;;;;;;;;5054965;28;20586;-72
2021/01/06 03:50:00;;;;;;;16.90;9.63;;;;;;;;;;5086282;28;20314;-72
2021/01/06 03:52:58;;;;;;;15.47;9.80;;;;;;;;;;5079713;28;20238;-72
2021/01/06 03:55:44;;;;;;;15.00;9.37;;;;;;;;;;5082624;28;20290;-72
2021/01/06 03:58:19;;;;;;;18.87;9.80;;;;;;;;;;5052388;28;20709;-72
2021/01/06 04:01:02;;;;;;;14.70;9.23;;;;;;;;;;5085125;28;20188;-72
2021/01/06 04:03:48;;;;;;;16.53;9.53;;;;;;;;;;5078903;28;20187;-72
2021/01/06 04:06:15;;;;;;;16.27;9.67;;;;;;;;;;5082397;28;20199;-72
2021/01/06 04:08:50;;;;;;;17.47;10.33;;;;;;;;;;5061563;28;20192;-72
2021/01/06 04:11:21;;;;;;;16.03;9.37;;;;;;;;;;5083212;28;20234;-72
2021/01/06 04:13:46;;;;;;;16.47;9.17;;;;;;;;;;5078965;28;20191;-72
2021/01/06 04:16:13;;;;;;;15.57;8.97;;;;;;;;;;5085850;28;20488;-72
2021/01/06 04:18:40;;;;;;;15.30;9.27;;;;;;;;;;5077707;28;20180;-72
2021/01/06 04:21:06;;;;;;;14.63;9.43;;;;;;;;;;5087767;28;20322;-72
2021/01/06 04:23:33;;;;;;;14.17;8.50;;;;;;;;;;5074578;28;20266;-72
2021/01/06 04:25:58;;;;;;;13.97;8.50;;;;;;;;;;5083628;28;20209;-72
2021/01/06 04:28:26;;;;;;;12.50;8.30;;;;;;;;;;5076127;28;20220;-72
2021/01/06 04:31:00;;;;;;;12.93;8.90;;;;;;;;;;5065977;28;20689;-72
2021/01/06 04:33:42;;;;;;;14.63;9.13;;;;;;;;;;5078284;28;20217;-71
2021/01/06 04:36:10;;;;;;;11.47;8.17;;;;;;;;;;5076568;28;20670;-72
2021/01/06 04:38:38;;;;;;;14.23;7.80;;;;;;;;;;5083798;28;20310;-72
2021/01/06 04:41:25;;;;;;;15.93;8.27;;;;;;;;;;5076341;28;20184;-72
2021/01/06 04:43:56;;;;;;;12.87;8.07;;;;;;;;;;5084886;28;20342;-72
2021/01/06 04:46:43;;;;;;;13.13;8.03;;;;;;;;;;5078697;28;20184;-72
2021/01/06 04:49:42;;;;;;;14.73;8.00;;;;;;;;;;5085464;28;20697;-72
2021/01/06 04:52:32;;;;;;;13.77;8.17;;;;;;;;;;5082899;28;20266;-72
2021/01/06 04:55:19;;;;;;;15.83;7.63;;;;;;;;;;5075700;28;20199;-72
2021/01/06 04:58:01;;;;;;;14.37;8.40;;;;;;;;;;5083388;28;20734;-72
2021/01/06 05:00:49;;;;;;;12.57;7.50;;;;;;;;;;5074641;28;20196;-72
2021/01/06 05:03:31;;;;;;;15.27;8.37;;;;;;;;;;5083969;28;20194;-72
2021/01/06 05:06:09;;;;;;;13.63;7.93;;;;;;;;;;5055281;28;20211;-72
2021/01/06 05:08:39;;;;;;;18.73;8.70;;;;;;;;;;5084855;28;20563;-72
2021/01/06 05:11:33;;;;;;;17.20;8.67;;;;;;;;;;5078319;28;20589;-72
2021/01/06 05:14:07;;;;;;;19.07;9.33;;;;;;;;;;5079175;28;20241;-72
2021/01/06 05:16:35;;;;;;;16.97;7.80;;;;;;;;;;5077167;28;20187;-71
2021/01/06 05:19:01;;;;;;;16.20;8.90;;;;;;;;;;5085410;28;20187;-71
2021/01/06 05:21:28;;;;;;;14.83;7.97;;;;;;;;;;5075520;28;20185;-71
2021/01/06 05:23:59;;;;;;;16.93;8.67;;;;;;;;;;5086355;28;20192;-71
2021/01/06 05:26:24;;;;;;;16.67;8.10;;;;;;;;;;5076467;28;20192;-71
2021/01/06 05:28:50;;;;;;;16.60;8.73;;;;;;;;;;5084811;28;20180;-72
2021/01/06 05:31:16;;;;;;;15.90;8.93;;;;;;;;;;5070974;28;20188;-71
2021/01/06 05:33:46;;;;;;;14.47;8.40;;;;;;;;;;5080374;28;20264;-72
2021/01/06 05:36:16;;;;;;;16.23;8.60;;;;;;;;;;5089625;28;20561;-72
2021/01/06 05:38:41;;;;;;;15.27;8.50;;;;;;;;;;5079661;28;20211;-72
2021/01/06 05:41:07;;;;;;;15.40;8.20;;;;;;;;;;5092349;28;20188;-72
2021/01/06 05:43:39;;;;;;;14.03;8.13;;;;;;;;;;5081486;28;20187;-72
2021/01/06 05:46:08;;;;;;;16.10;9.13;;;;;;;;;;5087940;28;20191;-72
2021/01/06 05:48:40;;;;;;;14.93;9.03;;;;;;;;;;5082071;28;20563;-72
2021/01/06 05:51:19;;;;;;;13.83;8.83;;;;;;;;;;5089974;28;20264;-72
2021/01/06 05:53:54;;;;;;;15.50;8.17;;;;;;;;;;5081775;28;20195;-71
2021/01/06 05:56:29;;;;;;;14.57;8.47;;;;;;;;;;5068839;28;20266;-71
2021/01/06 05:58:59;;;;;;;17.20;10.67;;;;;;;;;;5081287;28;20187;-71
2021/01/06 06:01:51;;;;;;;14.17;8.80;;;;;;;;;;5088975;28;20284;-71
2021/01/06 06:04:41;;;;;;;20.03;9.60;;;;;;;;;;4723136;28;9999798;-71
2021/01/06 06:07:12;;;;;;;15.17;8.80;;;;;;;;;;5068560;28;20541;-71
2021/01/06 06:09:43;;;;;;;16.97;9.77;;;;;;;;;;5074777;28;20669;-71
2021/01/06 06:12:27;;;;;;;17.87;9.07;;;;;;;;;;5084948;28;20546;-71
2021/01/06 06:15:13;;;;;;;14.73;8.87;;;;;;;;;;5060754;28;20742;-71
2021/01/06 06:17:53;;;;;;;17.27;9.37;;;;;;;;;;5084072;28;20183;-71
2021/01/06 06:20:50;;;;;;;17.20;9.60;;;;;;;;;;5058883;28;20187;-71
2021/01/06 06:23:53;;;;;;;16.77;9.00;;;;;;;;;;5085062;28;20180;-71
2021/01/06 06:26:43;;;;;;;15.20;9.03;;;;;;;;;;5077281;28;20211;-71
2021/01/06 06:29:29;;;;;;;14.97;9.23;;;;;;;;;;5081378;28;20600;-71
2021/01/06 06:31:57;;;;;;;13.63;9.20;;;;;;;;;;5084046;28;20191;-71
2021/01/06 06:34:36;;;;;;;15.30;10.17;;;;;;;;;;5065699;28;20594;-71
2021/01/06 06:37:17;;;;;;;15.53;9.27;;;;;;;;;;5078251;28;20233;-71
2021/01/06 06:40:04;;;;;;;17.00;9.57;;;;;;;;;;5084590;28;20214;-71
2021/01/06 06:42:54;;;;;;;15.60;8.67;;;;;;;;;;5085172;28;20184;-71
2021/01/06 06:45:35;;;;;;;14.40;8.80;;;;;;;;;;5075251;28;20546;-71
2021/01/06 06:48:19;;;;;;;18.73;9.50;;;;;;;;;;5086820;28;20200;-71
2021/01/06 06:50:58;;;;;;;16.87;10.20;;;;;;;;;;5061112;28;20199;-71
2021/01/06 06:53:34;;;;;;;19.10;9.50;;;;;;;;;;4732919;28;10000538;-71
2021/01/06 06:56:19;;;;;;;17.80;9.77;;;;;;;;;;5076336;28;20208;-71
2021/01/06 06:58:46;;;;;;;17.33;10.20;;;;;;;;;;5068147;28;20548;-71
2021/01/06 07:01:25;;;;;;;19.03;10.03;;;;;;;;;;5059837;28;20203;-71
2021/01/06 07:04:01;;;;;;;18.03;10.17;;;;;;;;;;5082435;28;20562;-71
2021/01/06 07:06:28;;;;;;;15.97;9.63;;;;;;;;;;5053275;28;27675;-71
2021/01/06 07:08:57;;;;;;;17.33;10.23;;;;;;;;;;5064906;28;20607;-71
2021/01/06 07:11:45;;;;;;;17.70;10.03;;;;;;;;;;5083848;28;20263;-71
2021/01/06 07:14:26;;;;;;;19.60;10.23;;;;;;;;;;5084073;28;20207;-71
2021/01/06 07:16:51;;;;;;;16.20;10.40;;;;;;;;;;5057730;28;20221;-72
2021/01/06 07:19:37;;;;;;;17.33;10.37;;;;;;;;;;5085484;28;20184;-72
2021/01/06 07:22:28;;;;;;;13.93;9.27;;;;;;;;;;5078464;28;20200;-71
2021/01/06 07:25:01;;;;;;;18.60;9.30;;;;;;;;;;5085910;28;20199;-71
2021/01/06 07:27:32;;;;;;;16.63;10.27;;;;;;;;;;5075639;28;20195;-71
2021/01/06 07:29:58;;;;;;;14.60;9.50;;;;;;;;;;5088422;28;20218;-73
2021/01/06 07:32:35;;;;;;;17.53;10.20;;;;;;;;;;5051349;28;20215;-71
2021/01/06 07:35:08;;;;;;;17.20;10.20;;;;;;;;;;5081846;28;20272;-72
2021/01/06 07:37:56;;;;;;;17.60;9.40;;;;;;;;;;5086393;28;20318;-71
2021/01/06 07:40:30;;;;;;;19.20;10.23;;;;;;;;;;5087232;28;20184;-71
2021/01/06 07:43:07;;;;;;;20.37;10.23;;;;;;;;;;5080773;28;20208;-72
2021/01/06 07:45:44;;;;;;;18.97;9.70;;;;;;;;;;5068740;28;20185;-72
2021/01/06 07:48:15;;;;;;;16.80;9.73;;;;;;;;;;5065739;28;20213;-72
2021/01/06 07:51:19;;;;;;;17.67;9.60;;;;;;;;;;5088692;28;20188;-72
2021/01/06 07:54:03;;;;;;;17.93;10.03;;;;;;;;;;5064615;28;20199;-72
2021/01/06 07:56:29;;;;;;;15.77;10.10;;;;;;;;;;5087340;28;20192;-74
2021/01/06 07:58:57;;;;;;;17.23;10.33;;;;;;;;;;5061851;28;20282;-72
2021/01/06 08:01:47;;;;;;;19.13;10.47;;;;;;;;;;5087683;28;20202;-72
2021/01/06 08:04:32;;;;;;;17.73;11.13;;;;;;;;;;5075380;28;20192;-73
2021/01/06 08:07:07;;;;;;;20.07;10.67;;;;;;;;;;5089864;28;20554;-72
2021/01/06 08:09:38;;;;;;;19.30;11.03;;;;;;;;;;5060102;28;20669;-72
2021/01/06 08:12:26;;;;;;;16.97;11.00;;;;;;;;;;5081023;28;20230;-72
2021/01/06 08:15:19;;;;;;;17.73;10.13;;;;;;;;;;5048866;28;20206;-72
2021/01/06 08:18:01;;;;;;;16.30;9.73;;;;;;;;;;5082021;28;20254;-72
2021/01/06 08:20:37;;;;;;;21.93;10.70;;;;;;;;;;5080696;28;20218;-71
2021/01/06 08:23:15;;;;;;;17.77;11.07;;;;;;;;;;5084025;28;20206;-71
2021/01/06 08:25:51;;;;;;;17.97;10.40;;;;;;;;;;5071365;28;20253;-70
2021/01/06 08:28:18;;;;;;;16.60;10.10;;;;;;;;;;5086401;28;20242;-70
2021/01/06 08:30:44;;;;;;;19.40;11.73;;;;;;;;;;5079043;28;21290;-72
2021/01/06 08:33:13;;;;;;;16.20;10.43;;;;;;;;;;5087527;28;20191;-73
2021/01/06 08:35:41;;;;;;;21.33;11.00;;;;;;;;;;5078478;28;20569;-72
2021/01/06 08:38:30;;;;;;;16.47;9.97;;;;;;;;;;5083994;28;20227;-72
2021/01/06 08:41:17;;;;;;;16.70;9.50;;;;;;;;;;5078290;28;20540;-73
2021/01/06 08:43:44;;;;;;;17.63;9.13;;;;;;;;;;5086701;28;20282;-72
2021/01/06 08:46:24;;;;;;;16.97;9.17;;;;;;;;;;5076872;28;20190;-72
2021/01/06 08:48:50;;;;;;;15.57;9.00;;;;;;;;;;5087555;28;20627;-72
2021/01/06 08:51:29;;;;;;;16.60;8.30;;;;;;;;;;5068762;28;20202;-72
2021/01/06 08:53:55;;;;;;;13.63;7.50;;;;;;;;;;5086895;28;20751;-72
2021/01/06 08:56:27;;;;;;;13.97;7.97;;;;;;;;;;5086500;28;20271;-72
2021/01/06 08:58:55;;;;;;;13.13;7.20;;;;;;;;;;5078244;28;20187;-71
2021/01/06 09:01:41;;;;;;;14.10;6.20;;;;;;;;;;5068539;28;20204;-71
2021/01/06 09:04:37;;;;;;;15.10;7.27;;;;;;;;;;5072666;28;20241;-71
2021/01/06 09:07:03;;;;;;;14.83;6.80;;;;;;;;;;4355992;28;10000772;-71
2021/01/06 09:09:57;;;;;;;14.40;6.27;;;;;;;;;;5084035;28;20635;-71
2021/01/06 09:12:25;;;;;;;13.87;6.80;;;;;;;;;;5074120;28;20253;-72
2021/01/06 09:14:53;;;;;;;13.83;6.33;;;;;;;;;;5083766;28;20226;-72
2021/01/06 09:17:29;;;;;;;10.87;5.80;;;;;;;;;;5081656;28;20192;-73
2021/01/06 09:20:04;;;;;;;10.13;5.67;;;;;;;;;;5068490;28;20200;-72
2021/01/06 09:22:29;;;;;;;11.90;5.77;;;;;;;;;;5083111;28;20245;-71
2021/01/06 09:24:55;;;;;;;9.07;4.70;;;;;;;;;;5072418;28;20631;-72
2021/01/06 09:27:38;;;;;;;9.20;4.60;;;;;;;;;;5078200;28;20667;-71
2021/01/06 09:30:26;;;;;;;11.30;5.00;;;;;;;;;;5054000;28;20563;-71
2021/01/06 09:32:54;;;;;;;8.53;4.30;;;;;;;;;;5052910;28;20180;-71
2021/01/06 09:35:25;;;;;;;6.27;3.87;;;;;;;;;;5077129;28;20259;-72
2021/01/06 09:38:05;;;;;;;8.73;3.97;;;;;;;;;;5086447;28;20664;-72
2021/01/06 09:40:31;;;;;;;10.67;4.77;;;;;;;;;;5077197;28;20773;-71
2021/01/06 09:43:22;;;;;;;10.10;4.27;;;;;;;;;;5067266;28;20662;-71
2021/01/06 09:45:48;;;;;;;6.47;4.10;;;;;;;;;;5053550;28;20655;-72
2021/01/06 09:48:15;;;;;;;7.67;3.20;;;;;;;;;;5087905;28;20191;-72
2021/01/06 09:50:48;;;;;;;10.67;3.83;;;;;;;;;;5077586;28;20188;-72
2021/01/06 09:53:18;;;;;;;9.40;3.70;;;;;;;;;;5085039;28;20329;-72
2021/01/06 09:55:46;;;;;;;6.60;3.77;;;;;;;;;;5057310;28;20719;-72
2021/01/06 09:58:30;;;;;;;6.80;3.70;;;;;;;;;;5086384;28;20537;-73
2021/01/06 10:01:18;;;;;;;6.17;3.57;;;;;;;;;;5064626;28;20555;-72
2021/01/06 10:03:47;;;;;;;8.57;3.90;;;;;;;;;;5083021;28;20238;-72
2021/01/06 10:06:38;;;;;;;10.77;3.30;;;;;;;;;;5070742;28;20204;-72
2021/01/06 10:09:33;;;;;;;6.87;3.10;;;;;;;;;;5071490;28;20183;-72
2021/01/06 10:12:05;;;;;;;12.90;3.93;;;;;;;;;;5075289;28;21193;-72
2021/01/06 10:14:51;;;;;;;10.17;3.40;;;;;;;;;;5085117;28;20219;-72
2021/01/06 10:17:27;;;;;;;8.37;3.40;;;;;;;;;;5079295;28;20263;-72
2021/01/06 10:20:29;;;;;;;7.60;3.00;;;;;;;;;;5088451;28;20357;-72
2021/01/06 10:23:02;;;;;;;8.20;3.50;;;;;;;;;;5060424;28;20679;-72
2021/01/06 10:25:57;;;;;;;8.03;3.73;;;;;;;;;;5070338;28;20646;-72
2021/01/06 10:28:22;;;;;;;8.50;3.60;;;;;;;;;;5088565;28;20184;-72
2021/01/06 10:31:00;;;;;;;6.10;3.20;;;;;;;;;;5086812;28;20235;-73
2021/01/06 10:33:26;;;;;;;5.40;3.03;;;;;;;;;;5077155;28;20648;-72
2021/01/06 10:35:54;;;;;;;5.73;3.27;;;;;;;;;;5086079;28;20212;-72
2021/01/06 10:38:34;;;;;;;6.70;3.43;;;;;;;;;;5079252;28;20694;-72
2021/01/06 10:41:24;;;;;;;9.57;3.60;;;;;;;;;;5087759;28;20651;-72
2021/01/06 10:44:29;;;;;;;7.20;3.57;;;;;;;;;;5077555;28;20192;-72
2021/01/06 10:46:55;;;;;;;10.47;3.23;;;;;;;;;;5081373;28;20192;-71
2021/01/06 10:49:21;;;;;;;7.53;3.00;;;;;;;;;;5087975;28;20206;-71
2021/01/06 10:51:56;;;;;;;7.67;3.03;;;;;;;;;;5088732;28;20667;-72
2021/01/06 10:54:52;;;;;;;5.13;3.10;;;;;;;;;;5079213;28;20208;-72
2021/01/06 10:57:40;;;;;;;7.23;3.40;;;;;;;;;;5090615;28;20198;-72
2021/01/06 11:00:19;;;;;;;6.77;3.60;;;;;;;;;;5086775;28;20192;-72
2021/01/06 11:02:57;;;;;;;7.67;3.20;;;;;;;;;;5064162;28;20213;-72
2021/01/06 11:05:30;;;;;;;8.90;4.30;;;;;;;;;;5085668;28;20265;-73
2021/01/06 11:08:01;;;;;;;10.17;3.80;;;;;;;;;;5069546;28;20191;-72
2021/01/06 11:10:54;;;;;;;6.83;3.80;;;;;;;;;;5071761;28;20192;-72
2021/01/06 11:13:50;;;;;;;6.70;3.43;;;;;;;;;;5080908;28;20203;-72
2021/01/06 11:16:20;;;;;;;8.47;3.70;;;;;;;;;;5084561;28;20292;-72
2021/01/06 11:18:52;;;;;;;7.40;3.53;;;;;;;;;;5059317;28;20188;-72
2021/01/06 11:21:38;;;;;;;7.53;2.90;;;;;;;;;;5068318;28;20181;-72
2021/01/06 11:24:33;;;;;;;8.30;3.43;;;;;;;;;;5081082;28;20240;-72
2021/01/06 11:27:00;;;;;;;8.43;3.63;;;;;;;;;;5087713;28;20180;-73
2021/01/06 11:29:48;;;;;;;7.77;3.50;;;;;;;;;;5061726;28;20192;-70
2021/01/06 11:32:26;;;;;;;5.73;3.40;;;;;;;;;;5087503;28;20180;-70
2021/01/06 11:35:30;;;;;;;6.10;3.20;;;;;;;;;;5079795;28;20294;-70
2021/01/06 11:37:57;;;;;;;12.17;3.20;;;;;;;;;;5089301;28;20322;-71
2021/01/06 11:40:26;;;;;;;9.03;3.57;;;;;;;;;;5078647;28;20180;-71
2021/01/06 11:42:58;;;;;;;8.97;3.10;;;;;;;;;;5089797;28;20195;-71
2021/01/06 11:45:29;;;;;;;6.60;3.37;;;;;;;;;;5061203;28;20184;-71
2021/01/06 11:48:46;;;;;;;7.67;3.00;;;;;;;;;;5087422;28;20639;-71
2021/01/06 11:51:23;;;;;;;3.63;2.60;;;;;;;;;;5059368;28;20686;-71
2021/01/06 11:54:16;;;;;;;9.37;3.20;;;;;;;;;;5077933;28;20627;-71
2021/01/06 11:56:48;;;;;;;7.70;2.93;;;;;;;;;;5063105;28;20563;-71
2021/01/06 11:59:30;;;;;;;5.03;3.07;;;;;;;;;;5089424;28;20168;-71
2021/01/06 12:02:12;;;;;;;8.37;3.10;;;;;;;;;;5080496;28;20187;-71
2021/01/06 12:05:17;;;;;;;6.57;3.23;;;;;;;;;;5085586;28;20255;-71
2021/01/06 12:08:20;;;;;;;5.13;2.43;;;;;;;;;;5077402;28;20266;-71
2021/01/06 12:11:09;;;;;;;9.03;3.10;;;;;;;;;;5079674;28;20711;-71
2021/01/06 12:13:54;;;;;;;7.73;3.60;;;;;;;;;;5076631;28;20209;-71
2021/01/06 12:16:33;;;;;;;9.67;2.90;;;;;;;;;;4382132;28;10000750;-71
2021/01/06 12:19:07;;;;;;;7.17;2.83;;;;;;;;;;5056076;28;20187;-71
2021/01/06 12:21:35;;;;;;;4.43;2.70;;;;;;;;;;5082669;28;20179;-71
2021/01/06 12:24:39;;;;;;;6.37;1.97;;;;;;;;;;5075223;28;20303;-71
2021/01/06 12:27:29;;;;;;;9.53;3.03;;;;;;;;;;5084231;28;20253;-72
2021/01/06 12:30:25;;;;;;;6.80;3.03;;;;;;;;;;5086117;28;20184;-72
2021/01/06 12:32:54;;;;;;;7.97;2.90;;;;;;;;;;5056172;28;20223;-72
2021/01/06 12:35:19;;;;;;;5.30;2.70;;;;;;;;;;5083467;28;20203;-72
2021/01/06 12:38:06;;;;;;;9.17;3.10;;;;;;;;;;5073708;28;20633;-72
2021/01/06 12:40:53;;;;;;;6.80;2.60;;;;;;;;;;5066060;28;20271;-71
2021/01/06 12:43:27;;;;;;;8.63;3.13;;;;;;;;;;5075038;28;20823;-72
2021/01/06 12:46:03;;;;;;;6.73;3.03;;;;;;;;;;5080780;28;20828;-71
2021/01/06 12:48:43;;;;;;;5.80;2.97;;;;;;;;;;5072850;28;20259;-72
2021/01/06 12:51:30;;;;;;;6.30;2.90;;;;;;;;;;5076995;28;20279;-71
2021/01/06 12:54:01;;;;;;;5.37;2.80;;;;;;;;;;5044449;28;20180;-71
2021/01/06 12:56:36;;;;;;;6.13;3.00;;;;;;;;;;5079945;28;20532;-71
2021/01/06 12:59:07;;;;;;;5.63;2.97;;;;;;;;;;5073398;28;20195;-72
2021/01/06 13:01:50;;;;;;;7.23;3.13;;;;;;;;;;5063393;28;20183;-71
2021/01/06 13:04:19;;;;;;;10.03;3.23;;;;;;;;;;5075271;28;20291;-71
2021/01/06 13:06:56;;;;;;;7.03;3.13;;;;;;;;;;5082120;28;20577;-72
2021/01/06 13:09:49;;;;;;;7.73;3.57;;;;;;;;;;5076754;28;20241;-72
2021/01/06 13:12:37;;;;;;;5.03;3.60;;;;;;;;;;5078858;28;20693;-71
2021/01/06 13:15:05;;;;;;;7.00;3.40;;;;;;;;;;5061008;28;20214;-72
2021/01/06 13:17:35;;;;;;;9.70;3.10;;;;;;;;;;5066159;28;20273;-71
2021/01/06 13:20:06;;;;;;;15.80;3.93;;;;;;;;;;5075203;28;20199;-71
2021/01/06 13:22:41;;;;;;;8.07;3.43;;;;;;;;;;5084970;28;20180;-71
2021/01/06 13:25:25;;;;;;;6.37;3.60;;;;;;;;;;5077777;28;20175;-71
2021/01/06 13:27:50;;;;;;;8.80;3.20;;;;;;;;;;5086615;28;20190;-70
2021/01/06 13:30:30;;;;;;;8.43;3.50;;;;;;;;;;5082638;28;20188;-70
2021/01/06 13:33:15;;;;;;;5.57;3.47;;;;;;;;;;5059668;28;20214;-70
2021/01/06 13:35:56;;;;;;;9.77;3.50;;;;;;;;;;5059251;28;20321;-72
2021/01/06 13:38:28;;;;;;;7.50;3.67;;;;;;;;;;5082472;28;20242;-71
2021/01/06 13:40:57;;;;;;;4.37;3.00;;;;;;;;;;5073327;28;20238;-71
2021/01/06 13:43:45;;;;;;;8.10;3.43;;;;;;;;;;5080103;28;20653;-71
2021/01/06 13:46:38;;;;;;;8.23;4.03;;;;;;;;;;5075954;28;20677;-71
2021/01/06 13:49:32;;;;;;;7.07;3.80;;;;;;;;;;5062250;28;20195;-72
2021/01/06 13:52:11;;;;;;;7.50;3.20;;;;;;;;;;5066402;28;20220;-71
2021/01/06 13:55:11;;;;;;;10.77;4.50;;;;;;;;;;5069396;28;20231;-71
2021/01/06 13:57:57;;;;;;;6.37;3.70;;;;;;;;;;5074603;28;20184;-71
2021/01/06 14:00:50;;;;;;;6.60;3.77;;;;;;;;;;5086983;28;20241;-72
2021/01/06 14:03:27;;;;;;;8.83;3.80;;;;;;;;;;5081118;28;20179;-72
2021/01/06 14:06:16;;;;;;;9.70;3.93;;;;;;;;;;5088786;28;20246;-72
2021/01/06 14:09:08;;;;;;;10.43;4.43;;;;;;;;;;5081164;28;20260;-72
2021/01/06 14:11:51;;;;;;;7.27;3.83;;;;;;;;;;5090125;28;20665;-72
2021/01/06 14:14:38;;;;;;;6.63;3.63;;;;;;;;;;5076564;28;20184;-72
2021/01/06 14:17:23;;;;;;;10.87;3.87;;;;;;;;;;5071904;28;20279;-72
2021/01/06 14:19:59;;;;;;;11.20;4.73;;;;;;;;;;5083981;28;20184;-71
2021/01/06 14:22:43;;;;;;;8.43;3.80;;;;;;;;;;5088095;28;20623;-71
2021/01/06 14:25:49;;;;;;;9.97;3.87;;;;;;;;;;5090827;28;20169;-71
2021/01/06 14:28:26;;;;;;;9.63;4.20;;;;;;;;;;5080740;28;20273;-71
2021/01/06 14:31:12;;;;;;;9.57;3.60;;;;;;;;;;5088076;28;20294;-71
2021/01/06 14:33:51;;;;;;;12.23;4.13;;;;;;;;;;5063282;28;20234;-71
2021/01/06 14:36:41;;;;;;;7.60;4.00;;;;;;;;;;5091547;28;20212;-71
2021/01/06 14:39:27;;;;;;;7.50;3.70;;;;;;;;;;5081917;28;20716;-71
2021/01/06 14:42:12;;;;;;;13.53;4.30;;;;;;;;;;5070662;28;20291;-71
2021/01/06 14:44:47;;;;;;;8.00;4.50;;;;;;;;;;5080613;28;20655;-72
2021/01/06 14:47:35;;;;;;;9.57;4.27;;;;;;;;;;5087126;28;20262;-72
2021/01/06 14:50:11;;;;;;;14.00;4.77;;;;;;;;;;5075556;28;20652;-72
2021/01/06 14:52:55;;;;;;;12.07;4.40;;;;;;;;;;5088675;28;20200;-72
2021/01/06 14:55:28;;;;;;;8.53;4.17;;;;;;;;;;5080067;28;20294;-72
2021/01/06 14:57:56;;;;;;;9.53;4.20;;;;;;;;;;5085814;28;20296;-72
2021/01/06 15:00:37;;;;;;;9.00;4.47;;;;;;;;;;5063801;28;20192;-72
2021/01/06 15:03:14;;;;;;;11.07;4.47;;;;;;;;;;5083664;28;20310;-72
2021/01/06 15:05:40;;;;;;;11.47;4.43;;;;;;;;;;5075241;28;20211;-72
2021/01/06 15:08:29;;;;;;;8.20;4.00;;;;;;;;;;5090268;28;20184;-71
2021/01/06 15:11:23;;;;;;;10.67;4.07;;;;;;;;;;5081627;28;20199;-72
2021/01/06 15:13:59;;;;;;;9.73;4.53;;;;;;;;;;5091359;28;20955;-72
2021/01/06 15:16:24;;;;;;;10.63;4.67;;;;;;;;;;5061398;28;20199;-72
2021/01/06 15:18:54;;;;;;;10.73;4.50;;;;;;;;;;5091025;28;20192;-72
2021/01/06 15:21:51;;;;;;;10.30;4.20;;;;;;;;;;5062238;28;20267;-72
2021/01/06 15:24:28;;;;;;;7.63;3.87;;;;;;;;;;5002429;28;20204;-72